Time;durP1;ratioP1;P1;durP2;ratioP2;P2;SDS_P1;SDS_P2;PMS_P1;PMS_P2;Temp;Humidity;BMP_temperature;BMP_pressure;BME280_temperature;BME280_humidity;BME280_pressure;Samples;Min_cycle;Max_cycle;Signal;HPM_P1;HPM_P2
2023/07/12 00:01:00;;;;;;;8.07;3.28;;;20.40;99.90;;;;;;5006206;28;20033;-82
2023/07/12 00:03:26;;;;;;;7.45;4.25;;;20.40;99.90;;;;;;5023726;28;20030;-80
2023/07/12 00:05:53;;;;;;;6.38;3.63;;;20.30;99.90;;;;;;5009813;28;20108;-81
2023/07/12 00:08:22;;;;;;;6.03;4.40;;;20.30;99.90;;;;;;5009220;28;20198;-82
2023/07/12 00:10:49;;;;;;;11.60;4.72;;;20.20;99.90;;;;;;5030083;28;20022;-81
2023/07/12 00:13:16;;;;;;;4.82;4.10;;;20.10;99.90;;;;;;5004487;28;20026;-79
2023/07/12 00:15:43;;;;;;;6.10;4.13;;;19.90;99.90;;;;;;5004259;28;20026;-80
2023/07/12 00:18:18;;;;;;;6.03;3.88;;;19.90;99.90;;;;;;4997464;28;20137;-80
2023/07/12 00:20:45;;;;;;;6.30;3.67;;;19.90;99.90;;;;;;5001220;28;20037;-81
2023/07/12 00:23:14;;;;;;;6.43;3.88;;;19.90;99.90;;;;;;5002177;28;20026;-81
2023/07/12 00:25:40;;;;;;;4.03;3.63;;;19.90;99.90;;;;;;5026041;28;20072;-81
2023/07/12 00:28:24;;;;;;;4.93;3.40;;;19.90;99.90;;;;;;5028107;28;20108;-81
2023/07/12 00:30:52;;;;;;;4.57;3.40;;;20.00;99.90;;;;;;5003420;28;20042;-81
2023/07/12 00:33:19;;;;;;;7.25;3.22;;;20.00;99.90;;;;;;5030870;28;20021;-82
2023/07/12 00:35:45;;;;;;;5.70;3.47;;;20.00;99.90;;;;;;4999612;28;20102;-82
2023/07/12 00:38:29;;;;;;;6.45;3.90;;;20.00;99.90;;;;;;5007887;28;20025;-81
2023/07/12 00:41:21;;;;;;;4.85;3.00;;;20.00;99.90;;;;;;5006461;28;20543;-82
2023/07/12 00:43:55;;;;;;;5.45;3.22;;;19.90;99.90;;;;;;5000333;28;20029;-80
2023/07/12 00:46:41;;;;;;;4.05;3.00;;;20.00;99.90;;;;;;5005333;28;20030;-79
2023/07/12 00:49:09;;;;;;;7.95;3.30;;;20.00;99.90;;;;;;5001651;28;20488;-79
2023/07/12 00:51:58;;;;;;;8.40;4.18;;;20.00;99.90;;;;;;5003329;28;20041;-78
2023/07/12 00:54:26;;;;;;;8.88;4.05;;;19.90;99.90;;;;;;4990038;28;20042;-80
2023/07/12 00:56:52;;;;;;;5.60;4.03;;;19.70;99.90;;;;;;5018657;28;20770;-79
2023/07/12 00:59:29;;;;;;;5.68;3.67;;;19.50;99.90;;;;;;5021025;28;20029;-83
2023/07/12 01:02:00;;;;;;;6.72;4.13;;;19.20;99.90;;;;;;4997918;28;20123;-80
2023/07/12 01:04:31;;;;;;;5.35;3.75;;;19.00;99.90;;;;;;5021928;28;20021;-79
2023/07/12 01:06:57;;;;;;;7.80;4.20;;;18.80;99.90;;;;;;5024626;28;20025;-79
2023/07/12 01:09:25;;;;;;;7.63;4.32;;;18.70;99.90;;;;;;5025934;28;20428;-78
2023/07/12 01:11:52;;;;;;;5.50;3.78;;;18.60;99.90;;;;;;5004625;28;20098;-79
2023/07/12 01:14:18;;;;;;;6.50;3.78;;;18.50;99.90;;;;;;5003278;28;20032;-78
2023/07/12 01:16:49;;;;;;;7.78;4.20;;;18.40;99.90;;;;;;5021987;28;20018;-80
2023/07/12 01:19:14;;;;;;;5.72;3.50;;;18.40;99.90;;;;;;5026419;28;20032;-79
2023/07/12 01:21:46;;;;;;;8.05;3.97;;;18.30;99.90;;;;;;5004284;28;20419;-79
2023/07/12 01:24:12;;;;;;;4.65;3.28;;;18.30;99.90;;;;;;5007745;28;20661;-79
2023/07/12 01:26:44;;;;;;;5.88;3.17;;;18.40;99.90;;;;;;5006187;28;20026;-79
2023/07/12 01:29:11;;;;;;;4.95;3.30;;;18.40;99.90;;;;;;4994991;28;20025;-78
2023/07/12 01:31:37;;;;;;;4.65;2.75;;;18.50;99.90;;;;;;5012262;28;20053;-79
2023/07/12 01:34:03;;;;;;;4.55;3.03;;;18.60;99.90;;;;;;4998966;28;20487;-79
2023/07/12 01:36:31;;;;;;;5.10;3.00;;;18.60;99.90;;;;;;5028794;28;20108;-80
2023/07/12 01:38:58;;;;;;;5.47;2.80;;;18.40;99.90;;;;;;5008621;28;20017;-79
2023/07/12 01:41:24;;;;;;;5.00;3.28;;;18.30;99.90;;;;;;5000686;28;20049;-80
2023/07/12 01:43:51;;;;;;;5.38;3.00;;;18.20;99.90;;;;;;5013538;28;20029;-79
2023/07/12 01:46:17;;;;;;;3.25;2.95;;;18.20;99.90;;;;;;4996285;28;20084;-79
2023/07/12 01:48:43;;;;;;;3.70;2.55;;;18.20;99.90;;;;;;5025450;28;20033;-78
2023/07/12 01:51:09;;;;;;;2.42;2.20;;;18.20;99.90;;;;;;5002500;28;20164;-79
2023/07/12 01:53:35;;;;;;;9.45;2.20;;;18.30;99.90;;;;;;5010141;28;20111;-79
2023/07/12 01:56:02;;;;;;;3.67;2.15;;;18.30;99.90;;;;;;5002247;28;20485;-79
2023/07/12 01:58:28;;;;;;;2.45;1.65;;;18.20;99.90;;;;;;5021903;28;20029;-80
2023/07/12 02:00:54;;;;;;;2.65;1.80;;;18.30;99.90;;;;;;5024521;28;20405;-78
2023/07/12 02:03:20;;;;;;;2.50;1.83;;;18.30;99.90;;;;;;4999643;28;20026;-80
2023/07/12 02:05:46;;;;;;;7.75;3.30;;;18.30;99.90;;;;;;5010060;28;20436;-83
2023/07/12 02:08:12;;;;;;;4.55;2.30;;;18.20;99.90;;;;;;5022026;28;20515;-82
2023/07/12 02:10:40;;;;;;;3.30;2.42;;;18.30;99.90;;;;;;5009878;28;20556;-83
2023/07/12 02:13:06;;;;;;;2.97;2.00;;;18.10;99.90;;;;;;5020364;28;20076;-80
2023/07/12 02:15:32;;;;;;;2.85;1.83;;;18.00;99.90;;;;;;5020926;28;20026;-82
2023/07/12 02:17:58;;;;;;;2.17;1.95;;;17.90;99.90;;;;;;5024618;28;20026;-79
2023/07/12 02:20:24;;;;;;;2.28;2.08;;;17.80;99.90;;;;;;5002664;28;20036;-81
2023/07/12 02:22:50;;;;;;;4.05;2.17;;;17.90;99.90;;;;;;5008040;28;20432;-80
2023/07/12 02:25:17;;;;;;;3.13;2.47;;;17.90;99.90;;;;;;4996274;28;20080;-81
2023/07/12 02:27:46;;;;;;;3.08;1.40;;;17.80;99.90;;;;;;4996124;28;20748;-80
2023/07/12 02:30:16;;;;;;;2.88;1.73;;;17.70;99.90;;;;;;4997175;28;20409;-80
2023/07/12 02:32:42;;;;;;;2.95;1.85;;;17.70;99.90;;;;;;5022174;28;20094;-79
2023/07/12 02:35:08;;;;;;;1.92;1.50;;;17.70;99.90;;;;;;4993970;28;20034;-79
2023/07/12 02:37:34;;;;;;;2.40;2.00;;;17.70;99.90;;;;;;4998874;28;20022;-78
2023/07/12 02:39:59;;;;;;;2.20;1.60;;;17.70;99.90;;;;;;5017966;28;20407;-78
2023/07/12 02:42:25;;;;;;;2.05;1.80;;;17.70;99.90;;;;;;5002000;28;20033;-78
2023/07/12 02:44:51;;;;;;;1.85;1.60;;;17.80;99.90;;;;;;5020930;28;20030;-78
2023/07/12 02:47:16;;;;;;;2.08;1.70;;;17.90;99.90;;;;;;4996308;28;20021;-78
2023/07/12 02:49:42;;;;;;;1.40;1.20;;;17.80;99.90;;;;;;5002405;28;20026;-78
2023/07/12 02:52:08;;;;;;;3.42;1.88;;;17.90;99.90;;;;;;4996413;28;20028;-78
2023/07/12 02:54:35;;;;;;;4.00;1.65;;;17.90;99.90;;;;;;5020717;28;20517;-78
2023/07/12 02:57:03;;;;;;;3.10;1.65;;;17.90;99.90;;;;;;5016405;28;20500;-79
2023/07/12 02:59:28;;;;;;;1.52;1.40;;;17.90;99.90;;;;;;5019431;28;20048;-78
2023/07/12 03:01:54;;;;;;;3.95;1.80;;;17.90;99.90;;;;;;5021057;28;20484;-79
2023/07/12 03:04:20;;;;;;;1.98;1.52;;;17.90;99.90;;;;;;5020290;28;20029;-78
2023/07/12 03:06:46;;;;;;;2.53;1.50;;;17.90;99.90;;;;;;5005456;28;20666;-79
2023/07/12 03:09:12;;;;;;;3.30;1.55;;;18.00;99.90;;;;;;5021728;28;20063;-79
2023/07/12 03:11:37;;;;;;;3.40;1.83;;;18.00;99.90;;;;;;5024807;28;20512;-78
2023/07/12 03:14:03;;;;;;;4.10;1.58;;;18.10;99.90;;;;;;5003638;28;20024;-82
2023/07/12 03:16:29;;;;;;;1.75;1.30;;;18.20;99.90;;;;;;4996272;28;20022;-79
2023/07/12 03:18:55;;;;;;;1.38;1.27;;;18.20;99.90;;;;;;5004348;28;20564;-79
2023/07/12 03:21:21;;;;;;;2.50;1.67;;;18.20;99.90;;;;;;4995243;28;20033;-79
2023/07/12 03:23:47;;;;;;;2.30;1.40;;;18.20;99.90;;;;;;5021118;28;20535;-81
2023/07/12 03:26:12;;;;;;;1.65;1.42;;;18.20;99.90;;;;;;5018573;28;20040;-79
2023/07/12 03:28:38;;;;;;;2.75;1.38;;;18.20;99.90;;;;;;5012585;28;20041;-79
2023/07/12 03:31:10;;;;;;;2.30;1.45;;;18.20;99.90;;;;;;4995634;28;20115;-80
2023/07/12 03:33:36;;;;;;;2.80;1.80;;;18.20;99.90;;;;;;5022012;28;20026;-81
2023/07/12 03:36:02;;;;;;;3.25;1.90;;;18.20;99.90;;;;;;5022225;28;20104;-79
2023/07/12 03:38:30;;;;;;;2.10;1.90;;;18.20;99.90;;;;;;5025532;28;20025;-81
2023/07/12 03:41:00;;;;;;;2.20;1.60;;;18.20;99.90;;;;;;4993913;28;20048;-79
2023/07/12 03:43:26;;;;;;;3.75;1.75;;;18.20;99.90;;;;;;5000979;28;20025;-80
2023/07/12 03:45:52;;;;;;;4.90;1.88;;;18.20;99.90;;;;;;5003234;28;20022;-80
2023/07/12 03:48:18;;;;;;;3.75;1.88;;;18.20;99.90;;;;;;4997153;28;20030;-81
2023/07/12 03:50:47;;;;;;;2.95;1.75;;;18.20;99.90;;;;;;5021254;28;21079;-79
2023/07/12 03:53:12;;;;;;;2.85;1.60;;;18.20;99.90;;;;;;4997146;28;20030;-80
2023/07/12 03:55:43;;;;;;;2.08;1.50;;;18.20;99.90;;;;;;5015312;28;20045;-80
2023/07/12 03:58:10;;;;;;;3.00;1.80;;;18.20;99.90;;;;;;4999933;28;20029;-80
2023/07/12 04:00:39;;;;;;;2.88;1.98;;;18.20;99.90;;;;;;5022822;28;20034;-79
2023/07/12 04:03:05;;;;;;;3.17;1.85;;;18.10;99.90;;;;;;4998093;28;20120;-79
2023/07/12 04:05:35;;;;;;;2.20;1.67;;;18.10;99.90;;;;;;5006345;28;20109;-79
2023/07/12 04:08:00;;;;;;;3.00;2.00;;;18.00;99.90;;;;;;4999826;28;20052;-79
2023/07/12 04:10:27;;;;;;;2.28;2.08;;;18.10;99.90;;;;;;5026301;28;20548;-79
2023/07/12 04:12:52;;;;;;;2.63;2.00;;;18.10;99.90;;;;;;4998665;28;20033;-80
2023/07/12 04:15:18;;;;;;;1.65;1.50;;;18.10;99.90;;;;;;5001824;28;20553;-78
2023/07/12 04:17:43;;;;;;;3.10;1.80;;;18.10;99.90;;;;;;5010105;28;20596;-79
2023/07/12 04:20:10;;;;;;;2.55;1.90;;;18.10;99.90;;;;;;4998852;28;20033;-79
2023/07/12 04:22:35;;;;;;;1.98;1.83;;;18.10;99.90;;;;;;5025399;28;20032;-80
2023/07/12 04:25:01;;;;;;;3.45;2.03;;;18.10;99.90;;;;;;5018015;28;20017;-79
2023/07/12 04:27:26;;;;;;;2.13;1.70;;;18.10;99.90;;;;;;5001490;28;20106;-79
2023/07/12 04:29:52;;;;;;;4.93;2.25;;;18.10;99.90;;;;;;5005465;28;20025;-79
2023/07/12 04:32:17;;;;;;;1.70;1.60;;;18.10;99.90;;;;;;5021695;28;20022;-79
2023/07/12 04:34:45;;;;;;;2.85;1.80;;;18.10;99.90;;;;;;5006468;28;20110;-78
2023/07/12 04:37:11;;;;;;;2.28;1.58;;;18.10;99.90;;;;;;5003253;28;20025;-79
2023/07/12 04:39:36;;;;;;;1.90;1.80;;;18.10;99.90;;;;;;4994211;28;20018;-78
2023/07/12 04:42:02;;;;;;;2.35;2.15;;;18.10;99.90;;;;;;5019472;28;20034;-80
2023/07/12 04:44:27;;;;;;;2.08;1.80;;;18.10;99.90;;;;;;5001073;28;20097;-79
2023/07/12 04:46:53;;;;;;;4.13;2.17;;;18.10;99.90;;;;;;5018846;28;20431;-78
2023/07/12 04:49:19;;;;;;;2.05;1.85;;;18.10;99.90;;;;;;5006581;28;20021;-79
2023/07/12 04:51:44;;;;;;;4.38;3.17;;;18.10;99.90;;;;;;5022696;28;20029;-80
2023/07/12 04:54:10;;;;;;;6.18;2.60;;;18.10;99.90;;;;;;5018445;28;20033;-80
2023/07/12 04:56:35;;;;;;;2.90;2.55;;;18.10;99.90;;;;;;5023537;28;20025;-79
2023/07/12 04:59:01;;;;;;;5.45;2.60;;;18.10;99.90;;;;;;5008404;28;20026;-79
2023/07/12 05:01:26;;;;;;;3.72;2.60;;;18.10;99.90;;;;;;5020639;28;20382;-78
2023/07/12 05:03:52;;;;;;;5.95;2.33;;;18.10;99.90;;;;;;5010149;28;20566;-79
2023/07/12 05:06:17;;;;;;;2.78;2.40;;;18.10;99.90;;;;;;5034592;23;20100;-61
2023/07/12 05:08:43;;;;;;;5.80;2.20;;;18.20;99.90;;;;;;5020280;28;20113;-61
2023/07/12 05:11:09;;;;;;;2.50;2.13;;;18.10;99.90;;;;;;5014529;28;20072;-61
2023/07/12 05:13:34;;;;;;;2.67;2.33;;;18.10;99.90;;;;;;5003028;28;20488;-61
2023/07/12 05:16:01;;;;;;;3.22;2.67;;;18.10;99.90;;;;;;5023731;28;20033;-61
2023/07/12 05:18:27;;;;;;;4.32;2.60;;;18.10;99.90;;;;;;5018580;28;20037;-61
2023/07/12 05:20:53;;;;;;;2.47;2.25;;;18.10;99.90;;;;;;5022429;28;20021;-61
2023/07/12 05:23:19;;;;;;;2.20;2.03;;;18.10;99.90;;;;;;5002279;28;20022;-60
2023/07/12 05:25:50;;;;;;;2.30;2.10;;;18.10;99.90;;;;;;5017223;28;20488;-61
2023/07/12 05:28:15;;;;;;;2.63;2.25;;;18.10;99.90;;;;;;4989675;28;20029;-61
2023/07/12 05:30:41;;;;;;;3.38;2.20;;;18.10;99.90;;;;;;5020739;28;20034;-61
2023/07/12 05:33:06;;;;;;;2.58;2.38;;;18.20;99.90;;;;;;5004352;28;20485;-61
2023/07/12 05:35:32;;;;;;;4.28;2.60;;;18.20;99.90;;;;;;4994136;28;20022;-60
2023/07/12 05:37:58;;;;;;;2.42;2.22;;;18.20;99.90;;;;;;5001956;28;20044;-61
2023/07/12 05:40:24;;;;;;;3.15;2.55;;;18.20;99.90;;;;;;5017751;28;20033;-61
2023/07/12 05:42:50;;;;;;;2.17;2.00;;;18.30;99.90;;;;;;5020147;28;20026;-62
2023/07/12 05:45:15;;;;;;;2.70;2.50;;;18.30;99.90;;;;;;5000958;28;20030;-61
2023/07/12 05:47:47;;;;;;;2.40;2.20;;;18.30;99.90;;;;;;5021218;28;20337;-60
2023/07/12 05:50:14;;;;;;;4.28;2.28;;;18.40;99.90;;;;;;5016638;28;20420;-61
2023/07/12 05:52:39;;;;;;;4.45;2.80;;;18.30;99.90;;;;;;5016434;28;20388;-61
2023/07/12 05:55:07;;;;;;;2.90;2.60;;;18.30;99.90;;;;;;5019107;28;20045;-61
2023/07/12 05:57:33;;;;;;;3.25;2.40;;;18.30;99.90;;;;;;5019941;28;20021;-61
2023/07/12 06:00:00;;;;;;;7.90;2.70;;;18.30;99.90;;;;;;5020260;28;20121;-61
2023/07/12 06:02:26;;;;;;;2.47;2.28;;;18.30;99.90;;;;;;5023681;28;20041;-61
2023/07/12 06:04:52;;;;;;;3.83;2.55;;;18.30;99.90;;;;;;5018467;28;20095;-61
2023/07/12 06:07:17;;;;;;;3.15;2.10;;;18.30;99.90;;;;;;5024455;28;20564;-61
2023/07/12 06:09:43;;;;;;;4.05;2.63;;;18.30;99.90;;;;;;5019262;28;20029;-61
2023/07/12 06:12:09;;;;;;;4.75;3.05;;;18.40;99.90;;;;;;5006728;28;20049;-62
2023/07/12 06:14:35;;;;;;;3.15;2.90;;;18.40;99.90;;;;;;5020299;28;20480;-61
2023/07/12 06:17:00;;;;;;;4.35;3.22;;;18.40;99.90;;;;;;5018260;28;20092;-61
2023/07/12 06:19:26;;;;;;;4.03;2.90;;;18.50;99.90;;;;;;5025506;28;20452;-61
2023/07/12 06:21:52;;;;;;;3.60;3.25;;;18.50;99.90;;;;;;5018838;28;20136;-61
2023/07/12 06:24:18;;;;;;;5.82;2.83;;;18.50;99.90;;;;;;5018512;28;20076;-61
2023/07/12 06:26:44;;;;;;;3.78;3.10;;;18.50;99.90;;;;;;5024275;28;20111;-61
2023/07/12 06:29:10;;;;;;;4.10;3.05;;;18.60;99.90;;;;;;5013372;28;20392;-61
2023/07/12 06:31:35;;;;;;;3.72;2.92;;;18.60;99.90;;;;;;5023386;28;20044;-61
2023/07/12 06:34:03;;;;;;;4.22;2.90;;;18.60;99.90;;;;;;5017903;28;20026;-61
2023/07/12 06:36:30;;;;;;;3.15;2.88;;;18.70;99.90;;;;;;5024673;28;20033;-61
2023/07/12 06:38:56;;;;;;;5.20;2.97;;;18.70;99.90;;;;;;5018079;28;20014;-60
2023/07/12 06:41:21;;;;;;;3.53;3.20;;;18.70;99.90;;;;;;5024714;28;20040;-61
2023/07/12 06:43:47;;;;;;;3.78;2.92;;;18.70;99.90;;;;;;5000205;28;20396;-60
2023/07/12 06:46:13;;;;;;;4.30;2.80;;;18.60;99.90;;;;;;5006889;28;20060;-60
2023/07/12 06:48:38;;;;;;;3.55;2.88;;;18.70;99.90;;;;;;5001595;28;20029;-62
2023/07/12 06:51:04;;;;;;;3.33;2.88;;;18.70;99.90;;;;;;5018169;28;20528;-60
2023/07/12 06:53:30;;;;;;;3.63;3.03;;;18.80;99.90;;;;;;5021821;28;20484;-61
2023/07/12 06:55:56;;;;;;;3.88;3.47;;;18.90;99.90;;;;;;5020417;28;20475;-61
2023/07/12 06:58:22;;;;;;;5.20;3.55;;;19.00;99.90;;;;;;5021831;28;20492;-62
2023/07/12 07:00:47;;;;;;;4.13;3.58;;;19.20;99.90;;;;;;5001969;28;20420;-61
2023/07/12 07:03:13;;;;;;;3.78;3.40;;;19.30;99.90;;;;;;5021026;28;20110;-62
2023/07/12 07:05:41;;;;;;;5.15;3.83;;;19.30;99.90;;;;;;5018351;28;20029;-62
2023/07/12 07:08:08;;;;;;;4.40;3.50;;;19.40;99.90;;;;;;5021030;28;20091;-61
2023/07/12 07:10:33;;;;;;;5.63;3.83;;;19.40;99.90;;;;;;5019302;28;20035;-61
2023/07/12 07:13:00;;;;;;;4.70;3.40;;;19.40;99.90;;;;;;5020875;28;20096;-62
2023/07/12 07:15:26;;;;;;;5.72;3.30;;;19.40;99.90;;;;;;5020274;28;20029;-60
2023/07/12 07:17:52;;;;;;;3.60;3.30;;;19.40;99.90;;;;;;5020803;28;20702;-61
2023/07/12 07:20:18;;;;;;;5.82;3.55;;;19.30;99.90;;;;;;5002953;28;20029;-61
2023/07/12 07:22:43;;;;;;;4.57;3.35;;;19.30;99.90;;;;;;5018023;28;20422;-62
2023/07/12 07:25:09;;;;;;;4.00;3.35;;;19.30;99.90;;;;;;4997453;28;20087;-61
2023/07/12 07:27:34;;;;;;;3.40;3.00;;;19.30;99.90;;;;;;5020409;28;20025;-61
2023/07/12 07:30:00;;;;;;;4.90;3.10;;;19.20;99.90;;;;;;5016920;28;20069;-61
2023/07/12 07:32:26;;;;;;;3.63;3.33;;;19.20;99.90;;;;;;5020813;28;20095;-61
2023/07/12 07:34:51;;;;;;;4.65;3.28;;;19.20;99.90;;;;;;5017862;28;20036;-62
2023/07/12 07:37:17;;;;;;;3.15;2.88;;;19.10;99.90;;;;;;5003432;28;20033;-62
2023/07/12 07:39:42;;;;;;;4.75;3.17;;;19.10;99.90;;;;;;5000119;28;20029;-60
2023/07/12 07:42:08;;;;;;;3.05;2.75;;;19.10;99.90;;;;;;5001911;28;20025;-62
2023/07/12 07:44:34;;;;;;;2.40;2.17;;;19.10;99.90;;;;;;5018887;28;20025;-61
2023/07/12 07:46:59;;;;;;;2.92;2.20;;;19.10;99.90;;;;;;5020662;28;20041;-61
2023/07/12 07:49:25;;;;;;;2.88;2.15;;;19.10;99.90;;;;;;5020231;28;20048;-59
2023/07/12 07:51:51;;;;;;;3.47;2.42;;;19.10;99.90;;;;;;5019471;28;20024;-62
2023/07/12 07:54:16;;;;;;;2.97;2.05;;;19.10;99.90;;;;;;5038631;23;20423;-65
2023/07/12 07:56:42;;;;;;;6.72;3.28;;;19.30;99.90;;;;;;5004974;28;20096;-61
2023/07/12 07:59:08;;;;;;;5.05;3.08;;;19.40;99.90;;;;;;5017724;28;20018;-60
2023/07/12 08:01:33;;;;;;;5.63;3.20;;;19.60;99.90;;;;;;5022164;28;20487;-63
2023/07/12 08:03:59;;;;;;;3.67;3.05;;;19.80;99.90;;;;;;5016820;28;20038;-63
2023/07/12 08:06:25;;;;;;;3.90;2.40;;;20.00;99.90;;;;;;5006569;28;20033;-61
2023/07/12 08:08:52;;;;;;;5.18;3.00;;;20.10;99.90;;;;;;4987392;28;20034;-65
2023/07/12 08:11:17;;;;;;;3.80;2.67;;;20.10;99.90;;;;;;5007517;28;20027;-66
2023/07/12 08:13:43;;;;;;;5.00;2.47;;;20.20;99.90;;;;;;5006595;28;20551;-62
2023/07/12 08:16:09;;;;;;;5.32;2.92;;;20.10;99.90;;;;;;5005920;28;20025;-64
2023/07/12 08:18:35;;;;;;;3.92;2.72;;;20.10;99.90;;;;;;4990030;28;20026;-65
2023/07/12 08:21:00;;;;;;;4.93;2.70;;;20.10;99.90;;;;;;5005552;28;20034;-63
2023/07/12 08:23:28;;;;;;;7.55;2.60;;;20.10;99.90;;;;;;5012263;28;20038;-65
2023/07/12 08:25:54;;;;;;;3.45;2.35;;;20.00;99.90;;;;;;4991415;28;20070;-65
2023/07/12 08:28:20;;;;;;;4.57;2.30;;;20.00;99.90;;;;;;4984324;28;20069;-65
2023/07/12 08:30:46;;;;;;;4.50;2.40;;;20.00;99.90;;;;;;5008857;28;20485;-67
2023/07/12 08:33:13;;;;;;;5.00;2.53;;;20.00;99.90;;;;;;5009671;28;20026;-65
2023/07/12 08:35:38;;;;;;;4.57;2.45;;;20.00;99.90;;;;;;5010836;28;20021;-65
2023/07/12 08:38:04;;;;;;;3.92;2.50;;;19.90;99.90;;;;;;5006026;28;20196;-65
2023/07/12 08:40:29;;;;;;;4.72;2.30;;;19.90;99.90;;;;;;4994485;28;20147;-65
2023/07/12 08:42:55;;;;;;;3.03;2.50;;;19.80;99.90;;;;;;4999567;28;20030;-65
2023/07/12 08:45:28;;;;;;;5.22;2.53;;;19.80;99.90;;;;;;5012348;28;20026;-66
2023/07/12 08:48:03;;;;;;;4.10;2.35;;;19.80;99.90;;;;;;5004061;28;20025;-56
2023/07/12 08:50:37;;;;;;;5.55;2.72;;;19.80;99.90;;;;;;5007708;28;20018;-67
2023/07/12 08:53:04;;;;;;;4.93;2.30;;;19.90;99.90;;;;;;5008160;28;20018;-65
2023/07/12 08:55:33;;;;;;;3.75;2.28;;;19.90;99.90;;;;;;4993275;28;20522;-65
2023/07/12 08:58:12;;;;;;;4.78;2.25;;;19.90;99.90;;;;;;5008816;28;20617;-64
2023/07/12 09:00:38;;;;;;;5.88;2.78;;;20.10;99.90;;;;;;4992026;28;20049;-65
2023/07/12 09:03:03;;;;;;;4.00;2.50;;;20.30;99.90;;;;;;5008549;28;20444;-67
2023/07/12 09:05:29;;;;;;;3.65;2.78;;;20.60;99.90;;;;;;5008935;28;20503;-65
2023/07/12 09:08:18;;;;;;;5.05;2.30;;;20.80;99.90;;;;;;5009196;28;20105;-65
2023/07/12 09:10:49;;;;;;;4.80;2.67;;;21.00;99.90;;;;;;5007223;28;20045;-65
2023/07/12 09:13:16;;;;;;;4.78;2.72;;;21.20;99.90;;;;;;5010487;28;20049;-65
2023/07/12 09:15:49;;;;;;;3.97;2.35;;;21.30;99.90;;;;;;5005141;28;20018;-65
2023/07/12 09:18:31;;;;;;;5.20;2.45;;;21.40;99.90;;;;;;5010865;28;20113;-65
2023/07/12 09:21:00;;;;;;;5.60;2.53;;;21.50;99.90;;;;;;5001004;28;20465;-66
2023/07/12 09:23:37;;;;;;;2.72;2.47;;;21.30;99.90;;;;;;4992894;28;20080;-65
2023/07/12 09:26:20;;;;;;;3.45;2.80;;;21.20;99.90;;;;;;5007847;28;20073;-64
2023/07/12 09:28:46;;;;;;;7.05;2.80;;;21.20;99.90;;;;;;4975530;28;20072;-66
2023/07/12 09:31:14;;;;;;;5.28;3.05;;;21.30;99.90;;;;;;5006798;28;20404;-65
2023/07/12 09:33:42;;;;;;;4.90;2.40;;;21.50;99.90;;;;;;5003074;28;20642;-66
2023/07/12 09:36:08;;;;;;;4.30;1.92;;;21.50;99.90;;;;;;5006054;28;20053;-65
2023/07/12 09:38:37;;;;;;;4.55;2.65;;;21.50;99.90;;;;;;5004946;28;20475;-64
2023/07/12 09:41:15;;;;;;;5.20;1.88;;;21.40;99.90;;;;;;5011591;28;20022;-65
2023/07/12 09:43:40;;;;;;;3.72;2.42;;;21.30;99.90;;;;;;4986546;28;20026;-66
2023/07/12 09:46:17;;;;;;;3.67;1.95;;;21.20;99.90;;;;;;5009768;28;20037;-66
2023/07/12 09:48:47;;;;;;;3.67;2.10;;;21.10;99.90;;;;;;4984306;28;20125;-64
2023/07/12 09:51:32;;;;;;;2.80;2.20;;;21.30;99.90;;;;;;5009286;28;20037;-65
2023/07/12 09:54:10;;;;;;;3.60;2.33;;;21.40;99.90;;;;;;5002107;28;20237;-68
2023/07/12 09:56:51;;;;;;;3.97;2.33;;;21.40;99.90;;;;;;5006267;28;20033;-66
2023/07/12 09:59:26;;;;;;;4.82;2.53;;;21.40;99.90;;;;;;4993820;28;20030;-61
2023/07/12 10:01:55;;;;;;;4.18;2.60;;;21.40;99.90;;;;;;4992208;28;20040;-66
2023/07/12 10:04:42;;;;;;;4.20;2.58;;;21.20;99.90;;;;;;5006868;28;20124;-64
2023/07/12 10:07:24;;;;;;;4.68;2.47;;;21.20;99.90;;;;;;5004331;28;20598;-65
2023/07/12 10:09:51;;;;;;;2.40;2.20;;;21.30;99.90;;;;;;4990182;28;20030;-65
2023/07/12 10:12:39;;;;;;;7.18;2.50;;;21.40;99.90;;;;;;5009421;28;20026;-64
2023/07/12 10:15:11;;;;;;;4.93;2.53;;;21.50;99.90;;;;;;4999031;28;20114;-65
2023/07/12 10:17:42;;;;;;;5.43;2.47;;;21.40;99.90;;;;;;5008218;28;20023;-65
2023/07/12 10:20:21;;;;;;;4.22;2.40;;;21.40;99.90;;;;;;4988215;28;20033;-63
2023/07/12 10:22:49;;;;;;;3.53;2.65;;;21.30;99.90;;;;;;5007216;28;20022;-65
2023/07/12 10:25:14;;;;;;;4.68;2.65;;;21.40;99.90;;;;;;5010477;28;20469;-66
2023/07/12 10:27:47;;;;;;;5.05;2.38;;;21.50;99.90;;;;;;5005478;28;20101;-64
2023/07/12 10:30:21;;;;;;;4.15;2.60;;;21.70;99.90;;;;;;5005169;28;20046;-66
2023/07/12 10:32:57;;;;;;;3.35;2.30;;;21.80;99.90;;;;;;4986704;28;20030;-64
2023/07/12 10:35:27;;;;;;;5.13;2.97;;;21.90;99.90;;;;;;5010161;28;20468;-65
2023/07/12 10:38:06;;;;;;;6.18;2.40;;;22.10;99.90;;;;;;5002712;28;20369;-67
2023/07/12 10:40:44;;;;;;;4.47;2.53;;;21.90;99.90;;;;;;5000192;28;20022;-67
2023/07/12 10:43:19;;;;;;;4.88;1.92;;;21.80;99.90;;;;;;4984841;28;20054;-64
2023/07/12 10:45:46;;;;;;;8.60;2.85;;;21.70;99.90;;;;;;5006577;28;20054;-66
2023/07/12 10:48:22;;;;;;;5.65;2.65;;;21.80;99.90;;;;;;5002154;28;20030;-64
2023/07/12 10:50:49;;;;;;;5.82;2.20;;;21.70;99.90;;;;;;5009718;28;20473;-64
2023/07/12 10:53:22;;;;;;;5.00;2.58;;;21.70;99.90;;;;;;5002068;28;20022;-66
2023/07/12 10:56:07;;;;;;;6.22;2.80;;;21.70;99.90;;;;;;5009172;28;20088;-64
2023/07/12 10:58:54;;;;;;;4.95;2.40;;;21.90;99.90;;;;;;5005963;28;20484;-58
2023/07/12 11:01:41;;;;;;;6.78;3.25;;;22.00;99.90;;;;;;5004497;28;20496;-64
2023/07/12 11:04:12;;;;;;;5.28;2.42;;;22.00;99.90;;;;;;4986484;28;20026;-64
2023/07/12 11:07:01;;;;;;;3.30;2.20;;;22.00;99.90;;;;;;5007191;28;20026;-65
2023/07/12 11:09:49;;;;;;;3.50;1.80;;;22.10;99.90;;;;;;5006922;28;20648;-64
2023/07/12 11:12:26;;;;;;;8.60;2.40;;;22.10;99.90;;;;;;5007164;28;20113;-65
2023/07/12 11:15:09;;;;;;;5.25;2.55;;;22.10;99.90;;;;;;5001340;28;20049;-65
2023/07/12 11:18:09;;;;;;;4.30;2.47;;;21.90;99.90;;;;;;5004637;28;20026;-64
2023/07/12 11:21:25;;;;;;;3.33;2.25;;;21.80;99.90;;;;;;5003064;28;20045;-62
2023/07/12 11:23:51;;;;;;;3.17;2.40;;;21.80;99.90;;;;;;4958481;28;20147;-63
2023/07/12 11:26:28;;;;;;;3.97;2.53;;;21.70;99.90;;;;;;5009491;28;20431;-64
2023/07/12 11:29:28;;;;;;;5.03;2.22;;;21.80;99.90;;;;;;4997715;28;20105;-65
2023/07/12 11:32:23;;;;;;;4.75;2.70;;;21.80;99.90;;;;;;5008222;28;20648;-64
2023/07/12 11:34:53;;;;;;;6.78;3.33;;;21.90;99.90;;;;;;4997813;28;20033;-60
2023/07/12 11:37:40;;;;;;;2.83;2.40;;;21.90;99.90;;;;;;5009699;28;20021;-61
2023/07/12 11:40:35;;;;;;;3.97;2.03;;;21.80;99.90;;;;;;4982571;28;20033;-62
2023/07/12 11:43:23;;;;;;;6.15;2.25;;;21.80;99.90;;;;;;4967969;28;20038;-64
2023/07/12 11:45:55;;;;;;;4.93;2.80;;;21.70;99.90;;;;;;5003295;28;20032;-64
2023/07/12 11:48:22;;;;;;;6.75;2.80;;;21.70;99.90;;;;;;4990519;28;20033;-61
2023/07/12 11:50:50;;;;;;;4.30;2.40;;;21.70;99.90;;;;;;5004391;28;20515;-60
2023/07/12 11:53:17;;;;;;;5.68;2.72;;;21.90;99.90;;;;;;5006371;28;20088;-62
2023/07/12 11:55:43;;;;;;;6.78;2.83;;;22.00;99.90;;;;;;5003197;28;20121;-62
2023/07/12 11:58:19;;;;;;;6.57;3.15;;;22.20;99.90;;;;;;4991383;28;20143;-65
2023/07/12 12:00:46;;;;;;;5.38;2.22;;;22.20;99.90;;;;;;4985799;28;20038;-59
2023/07/12 12:03:14;;;;;;;6.30;2.72;;;22.10;99.90;;;;;;5004520;28;20124;-63
2023/07/12 12:05:41;;;;;;;4.72;2.95;;;21.90;99.90;;;;;;5003921;28;20029;-62
2023/07/12 12:08:10;;;;;;;6.40;3.15;;;21.80;99.90;;;;;;5003135;28;20026;-60
2023/07/12 12:10:38;;;;;;;3.13;2.50;;;21.90;99.90;;;;;;5003655;28;20389;-61
2023/07/12 12:13:23;;;;;;;2.80;2.53;;;22.10;99.90;;;;;;5008887;28;20045;-61
2023/07/12 12:16:06;;;;;;;4.70;2.30;;;22.30;99.90;;;;;;5002260;28;20477;-59
2023/07/12 12:18:34;;;;;;;6.72;2.80;;;22.40;99.90;;;;;;5008245;28;20431;-64
2023/07/12 12:21:13;;;;;;;4.82;2.42;;;22.40;99.90;;;;;;5003449;28;20124;-60
2023/07/12 12:23:41;;;;;;;4.38;2.40;;;22.60;99.90;;;;;;5007045;28;20030;-64
2023/07/12 12:26:36;;;;;;;3.63;1.58;;;22.40;99.90;;;;;;5002701;28;20026;-61
2023/07/12 12:29:11;;;;;;;1.52;0.90;;;22.10;99.90;;;;;;4990384;28;20034;-65
2023/07/12 12:31:53;;;;;;;3.00;1.10;;;21.90;99.90;;;;;;4998879;28;20053;-60
2023/07/12 12:34:19;;;;;;;1.55;1.00;;;21.40;99.90;;;;;;5007474;28;20037;-62
2023/07/12 12:36:58;;;;;;;1.75;1.52;;;21.20;99.90;;;;;;5001939;28;20017;-65
2023/07/12 12:39:24;;;;;;;2.00;1.33;;;20.80;99.90;;;;;;4989126;28;20042;-64
2023/07/12 12:41:58;;;;;;;4.97;1.23;;;20.70;99.90;;;;;;5001967;28;20022;-62
2023/07/12 12:44:28;;;;;;;3.40;1.25;;;20.60;99.90;;;;;;5005616;28;20091;-61
2023/07/12 12:46:56;;;;;;;2.65;1.35;;;20.60;99.90;;;;;;5001254;28;20511;-59
2023/07/12 12:49:26;;;;;;;3.00;1.42;;;20.60;99.90;;;;;;5005028;28;20030;-64
2023/07/12 12:51:55;;;;;;;3.42;1.30;;;20.70;99.90;;;;;;5001157;28;20030;-63
2023/07/12 12:54:22;;;;;;;3.05;1.42;;;20.80;99.90;;;;;;5007899;28;20452;-64
2023/07/12 12:56:47;;;;;;;2.83;1.35;;;20.90;99.90;;;;;;5003424;28;20030;-61
2023/07/12 12:59:15;;;;;;;2.45;1.30;;;20.90;99.90;;;;;;5007094;28;20026;-64